createdAt,value
2023-05-09T00:02:26.177Z,91.98
2023-05-09T00:04:53.990Z,89.77
2023-05-09T00:07:21.719Z,91.92
2023-05-09T00:09:49.527Z,83.74
2023-05-09T00:12:17.390Z,89.75
2023-05-09T00:14:45.499Z,88.84
2023-05-09T00:17:15.815Z,92.39
2023-05-09T00:19:43.609Z,92.32
2023-05-09T00:22:13.271Z,87.93
2023-05-09T00:24:41.362Z,89.45
2023-05-09T00:27:09.948Z,90.47
2023-05-09T00:29:37.744Z,92.46
2023-05-09T00:32:06.295Z,82.62
2023-05-09T00:34:35.469Z,96.35
2023-05-09T00:37:03.250Z,84.97
2023-05-09T00:39:30.950Z,85.99
2023-05-09T00:41:58.635Z,82.83
2023-05-09T00:44:26.348Z,87.47
2023-05-09T00:46:54.039Z,81.26
2023-05-09T00:49:21.957Z,76.33
2023-05-09T00:51:51.285Z,84.71
2023-05-09T00:54:19.071Z,83.46
2023-05-09T00:56:46.882Z,87.21
2023-05-09T00:59:16.294Z,96.05
2023-05-09T01:01:45.154Z,93.94
2023-05-09T01:04:14.052Z,87.91
2023-05-09T01:06:47.224Z,87.68
2023-05-09T01:09:21.038Z,91.47
2023-05-09T01:11:56.733Z,88.97
2023-05-09T01:14:31.959Z,82.15
2023-05-09T01:17:03.379Z,80.81
2023-05-09T01:19:53.405Z,81.56
2023-05-09T01:22:21.880Z,84.73
2023-05-09T01:25:06.816Z,87.78
2023-05-09T01:27:44.689Z,78.33
2023-05-09T01:30:16.022Z,82.04
2023-05-09T01:32:44.782Z,83.31
2023-05-09T01:35:14.765Z,80.77
2023-05-09T01:37:44.544Z,81.81
2023-05-09T01:40:16.926Z,82.22
2023-05-09T01:42:46.002Z,84.47
2023-05-09T01:45:15.687Z,80.55
2023-05-09T01:47:44.401Z,83.78
2023-05-09T01:50:13.528Z,83.01
2023-05-09T01:52:42.202Z,85.92
2023-05-09T01:55:10.664Z,80.30
2023-05-09T01:57:39.561Z,84.49
2023-05-09T02:00:10.234Z,80.04
2023-05-09T02:02:39.732Z,78.83
2023-05-09T02:05:11.351Z,75.19
2023-05-09T02:07:40.190Z,75.70
2023-05-09T02:10:09.511Z,81.65
2023-05-09T02:12:37.217Z,82.79
2023-05-09T02:15:05.899Z,81.46
2023-05-09T02:17:33.690Z,74.50
2023-05-09T02:20:02.779Z,80.67
2023-05-09T02:22:30.894Z,76.98
2023-05-09T02:24:58.889Z,76.82
2023-05-09T02:27:27.109Z,77.97
2023-05-09T02:29:58.385Z,75.55
2023-05-09T02:32:29.559Z,73.95
2023-05-09T02:34:58.516Z,72.68
2023-05-09T02:37:28.532Z,68.99
2023-05-09T02:39:56.504Z,72.52
2023-05-09T02:42:26.048Z,69.55
2023-05-09T02:44:54.129Z,71.75
2023-05-09T02:47:21.896Z,72.14
2023-05-09T02:49:49.635Z,75.58
2023-05-09T02:52:17.324Z,73.77
2023-05-09T02:54:46.479Z,72.05
2023-05-09T02:57:14.163Z,71.04
2023-05-09T02:59:42.176Z,75.80
2023-05-09T03:02:09.837Z,76.54
2023-05-09T03:04:37.658Z,76.50
2023-05-09T03:07:05.525Z,78.99
2023-05-09T03:09:33.297Z,78.18
2023-05-09T03:12:02.524Z,78.30
2023-05-09T03:14:30.234Z,80.07
2023-05-09T03:16:58.040Z,76.79
2023-05-09T03:19:25.776Z,75.97
2023-05-09T03:21:53.684Z,75.98
2023-05-09T03:24:21.428Z,75.44
2023-05-09T03:26:54.954Z,79.95
2023-05-09T03:29:24.018Z,81.65
2023-05-09T03:31:51.971Z,78.10
2023-05-09T03:34:19.718Z,80.87
2023-05-09T03:36:47.703Z,77.95
2023-05-09T03:39:15.884Z,81.16
2023-05-09T03:41:44.273Z,77.97
2023-05-09T03:44:11.965Z,82.00
2023-05-09T03:46:41.107Z,79.47
2023-05-09T03:49:08.840Z,79.96
2023-05-09T03:51:36.765Z,78.24
2023-05-09T03:54:05.673Z,82.64
2023-05-09T03:56:33.375Z,78.33
2023-05-09T03:59:01.115Z,77.32
2023-05-09T04:01:28.797Z,75.48
2023-05-09T04:03:58.687Z,81.13
2023-05-09T04:06:26.509Z,76.01
2023-05-09T04:08:54.204Z,78.19
2023-05-09T04:11:22.867Z,79.96
2023-05-09T04:13:50.678Z,83.22
2023-05-09T04:16:18.463Z,82.41
2023-05-09T04:18:46.405Z,82.82
2023-05-09T04:21:15.780Z,79.86
2023-05-09T04:23:44.053Z,80.34
2023-05-09T04:26:12.556Z,76.41
2023-05-09T04:28:40.206Z,80.78
2023-05-09T04:31:08.310Z,82.13
2023-05-09T04:33:38.313Z,80.31
2023-05-09T04:36:07.408Z,78.72
2023-05-09T04:38:36.474Z,79.51
2023-05-09T04:41:04.180Z,80.96
2023-05-09T04:43:32.625Z,80.46
2023-05-09T04:46:00.451Z,82.96
2023-05-09T04:51:09.813Z,77.03
2023-05-09T04:53:38.875Z,78.55
2023-05-09T04:56:07.131Z,77.55
2023-05-09T04:58:38.419Z,83.58
2023-05-09T05:01:06.550Z,75.83
2023-05-09T05:03:34.347Z,78.32
2023-05-09T05:06:02.241Z,76.76
2023-05-09T05:08:30.155Z,79.20
2023-05-09T05:10:59.371Z,73.66
2023-05-09T05:13:27.117Z,74.54
2023-05-09T05:15:54.886Z,78.42
2023-05-09T05:18:22.601Z,74.15
2023-05-09T05:20:50.326Z,73.12
2023-05-09T05:23:18.388Z,73.43
2023-05-09T05:25:46.112Z,72.98
2023-05-09T05:28:15.307Z,76.30
2023-05-09T05:30:42.971Z,71.82
2023-05-09T05:33:12.488Z,78.08
2023-05-09T05:35:40.150Z,73.95
2023-05-09T05:38:07.803Z,70.20
2023-05-09T05:40:35.520Z,75.07
2023-05-09T05:43:03.223Z,75.65
2023-05-09T05:45:32.515Z,78.00
2023-05-09T05:48:01.064Z,74.20
2023-05-09T05:50:29.064Z,76.67
2023-05-09T05:52:57.329Z,76.15
2023-05-09T05:55:25.549Z,78.37
2023-05-09T05:57:53.245Z,73.15
2023-05-09T06:00:21.203Z,74.15
2023-05-09T06:02:50.450Z,73.02
2023-05-09T06:05:18.300Z,76.38
2023-05-09T06:07:46.016Z,73.55
2023-05-09T06:10:15.890Z,68.62
2023-05-09T06:12:43.667Z,69.91
2023-05-09T06:15:12.817Z,67.80
2023-05-09T06:17:40.879Z,73.19
2023-05-09T06:20:10.534Z,70.32
2023-05-09T06:22:38.312Z,72.82
2023-05-09T06:25:10.142Z,67.98
2023-05-09T06:27:38.394Z,72.90
2023-05-09T06:30:23.824Z,73.17
2023-05-09T06:32:52.937Z,71.72
2023-05-09T06:35:22.272Z,71.31
2023-05-09T06:37:50.087Z,69.96
2023-05-09T06:40:18.055Z,71.15
2023-05-09T06:42:45.833Z,67.64
2023-05-09T06:45:13.771Z,66.61
2023-05-09T06:47:41.667Z,66.77
2023-05-09T06:50:10.229Z,69.40
2023-05-09T06:52:39.308Z,70.01
2023-05-09T06:55:08.492Z,72.40
2023-05-09T06:57:36.300Z,70.83
2023-05-09T07:00:04.993Z,68.54
2023-05-09T07:02:32.861Z,66.46
2023-05-09T07:08:39.668Z,67.67
2023-05-09T07:11:07.522Z,68.70
2023-05-09T07:13:35.265Z,64.66
2023-05-09T07:16:05.293Z,69.69
2023-05-09T07:18:33.190Z,71.97
2023-05-09T07:21:00.890Z,72.41
2023-05-09T07:23:28.573Z,66.96
2023-05-09T07:26:01.434Z,64.29
2023-05-09T07:28:29.211Z,66.04
2023-05-09T07:30:57.325Z,63.62
2023-05-09T07:33:25.074Z,67.66
2023-05-09T07:35:53.302Z,63.90
2023-05-09T07:38:21.140Z,64.28
2023-05-09T07:40:49.003Z,63.51
2023-05-09T07:43:18.009Z,64.61
2023-05-09T07:45:46.321Z,67.34
2023-05-09T07:48:14.305Z,74.04
2023-05-09T07:50:42.104Z,68.25
2023-05-09T07:53:09.967Z,71.31
2023-05-09T07:56:01.260Z,63.46
2023-05-09T07:58:30.342Z,62.59
2023-05-09T08:01:11.112Z,61.65
2023-05-09T08:03:38.915Z,60.97
2023-05-09T08:06:06.756Z,60.42
2023-05-09T08:08:34.423Z,59.45
2023-05-09T08:11:02.255Z,62.93
2023-05-09T08:13:31.393Z,69.32
2023-05-09T08:15:59.430Z,69.63
2023-05-09T08:18:27.156Z,70.30
2023-05-09T08:20:54.932Z,66.58
2023-05-09T08:23:22.579Z,68.14
2023-05-09T08:25:54.197Z,66.91
2023-05-09T08:28:24.315Z,63.50
2023-05-09T08:30:53.583Z,63.84
2023-05-09T08:33:21.272Z,66.87
2023-05-09T08:35:51.744Z,62.45
2023-05-09T08:38:19.788Z,63.33
2023-05-09T08:40:48.428Z,61.95
2023-05-09T08:43:19.244Z,59.64
2023-05-09T08:45:48.500Z,61.91
2023-05-09T08:48:18.111Z,62.75
2023-05-09T08:50:46.328Z,63.16
2023-05-09T08:53:15.181Z,62.30
2023-05-09T08:55:43.073Z,59.40
2023-05-09T08:58:11.265Z,57.66
2023-05-09T09:00:39.833Z,60.24
2023-05-09T09:03:07.768Z,60.28
2023-05-09T09:05:42.010Z,56.72
2023-05-09T09:08:11.097Z,55.64
2023-05-09T09:10:41.938Z,56.59
2023-05-09T09:13:10.456Z,57.65
2023-05-09T09:15:38.998Z,57.83
2023-05-09T09:18:10.119Z,60.21
2023-05-09T09:20:42.665Z,58.58
2023-05-09T09:23:11.619Z,58.91
2023-05-09T09:25:39.322Z,58.65
2023-05-09T09:28:07.513Z,58.32
2023-05-09T09:30:35.165Z,57.90
2023-05-09T09:33:03.706Z,58.51
2023-05-09T09:35:41.024Z,58.57
2023-05-09T09:38:08.726Z,58.44
2023-05-09T09:40:39.254Z,59.15
2023-05-09T09:43:08.059Z,60.49
2023-05-09T09:45:36.434Z,59.13
2023-05-09T09:48:07.428Z,59.46
2023-05-09T09:50:35.346Z,61.48
2023-05-09T09:53:04.354Z,59.61
2023-05-09T09:55:32.872Z,60.97
2023-05-09T09:58:18.167Z,59.25
2023-05-09T10:00:46.277Z,61.19
2023-05-09T10:03:17.252Z,56.05
2023-05-09T10:05:45.113Z,57.27
2023-05-09T10:08:14.173Z,54.90
2023-05-09T10:10:42.132Z,55.79
2023-05-09T10:13:12.039Z,53.33
2023-05-09T10:15:52.141Z,51.56
2023-05-09T10:18:23.552Z,53.99
2023-05-09T10:20:51.449Z,51.95
2023-05-09T10:23:21.370Z,54.16
2023-05-09T10:25:55.504Z,53.56
2023-05-09T10:28:25.231Z,56.15
2023-05-09T10:30:58.694Z,56.18
2023-05-09T10:33:31.639Z,56.16
2023-05-09T10:35:59.943Z,56.96
2023-05-09T10:38:29.618Z,55.21
2023-05-09T10:40:58.184Z,55.32
2023-05-09T10:43:25.905Z,56.22
2023-05-09T10:45:53.747Z,53.94
2023-05-09T10:48:21.736Z,53.45
2023-05-09T10:50:49.658Z,50.58
2023-05-09T10:53:18.339Z,54.76
2023-05-09T10:55:53.151Z,54.16
2023-05-09T10:58:28.459Z,50.20
2023-05-09T11:00:57.509Z,50.45
2023-05-09T11:03:55.764Z,51.03
2023-05-09T11:06:45.183Z,51.07
2023-05-09T11:09:27.149Z,48.97
2023-05-09T11:11:57.996Z,46.99
2023-05-09T11:14:32.949Z,47.46
2023-05-09T11:17:01.917Z,45.45
2023-05-09T11:19:37.131Z,48.97
2023-05-09T11:22:13.666Z,46.99
2023-05-09T11:24:41.884Z,45.21
2023-05-09T11:27:17.894Z,47.77
2023-05-09T11:29:47.469Z,46.60
2023-05-09T11:32:16.618Z,48.01
2023-05-09T11:34:45.157Z,48.25
2023-05-09T11:37:13.779Z,47.91
2023-05-09T11:39:59.213Z,46.27
2023-05-09T11:42:29.303Z,47.13
2023-05-09T11:44:57.910Z,45.85
2023-05-09T11:47:26.463Z,43.89
2023-05-09T11:49:54.118Z,45.15
2023-05-09T11:52:22.017Z,46.29
2023-05-09T11:54:50.247Z,45.78
2023-05-09T11:57:18.302Z,43.28
2023-05-09T11:59:47.426Z,46.86
2023-05-09T12:02:15.570Z,46.47
2023-05-09T12:04:44.296Z,46.18
2023-05-09T12:07:13.319Z,48.41
2023-05-09T12:09:41.040Z,44.85
2023-05-09T12:12:12.712Z,45.75
2023-05-09T12:14:41.426Z,42.76
2023-05-09T12:17:10.668Z,45.13
2023-05-09T12:19:38.330Z,44.59
2023-05-09T12:22:07.029Z,40.03
2023-05-09T12:24:37.405Z,43.06
2023-05-09T12:27:07.919Z,45.21
2023-05-09T12:29:36.288Z,43.65
2023-05-09T12:32:04.122Z,46.37
2023-05-09T12:34:33.450Z,46.37
2023-05-09T12:37:03.742Z,44.33
2023-05-09T12:39:31.500Z,45.55
2023-05-09T12:42:02.072Z,43.59
2023-05-09T12:44:30.464Z,43.64
2023-05-09T12:46:59.371Z,41.92
2023-05-09T12:49:27.816Z,41.28
2023-05-09T12:51:58.899Z,40.11
2023-05-09T12:54:28.432Z,42.27
2023-05-09T12:56:58.350Z,40.86
2023-05-09T12:59:27.249Z,45.66
2023-05-09T13:01:57.381Z,46.82
2023-05-09T13:04:26.008Z,46.03
2023-05-09T13:06:57.482Z,47.29
2023-05-09T13:09:26.297Z,46.71
2023-05-09T13:11:54.544Z,47.91
2023-05-09T13:14:23.973Z,50.42
2023-05-09T13:16:51.718Z,47.19
2023-05-09T13:19:19.537Z,46.21
2023-05-09T13:21:47.219Z,42.60
2023-05-09T13:24:16.375Z,44.08
2023-05-09T13:26:44.003Z,43.50
2023-05-09T13:29:11.669Z,43.37
2023-05-09T13:31:39.305Z,46.06
2023-05-09T13:34:06.989Z,46.72
2023-05-09T13:36:34.837Z,46.50
2023-05-09T13:39:02.527Z,47.20
2023-05-09T13:41:34.269Z,48.58
2023-05-09T13:44:02.583Z,48.35
2023-05-09T13:46:30.277Z,51.62
2023-05-09T13:48:58.004Z,51.09
2023-05-09T13:51:25.819Z,53.34
2023-05-09T13:53:53.550Z,56.41
2023-05-09T13:56:21.264Z,58.56
2023-05-09T13:58:50.438Z,64.72
2023-05-09T14:01:18.442Z,73.66
2023-05-09T14:03:49.027Z,76.79
2023-05-09T14:06:16.851Z,85.49
2023-05-09T14:08:44.583Z,93.39
2023-05-09T14:11:12.638Z,97.16
2023-05-09T14:13:40.593Z,90.86
2023-05-09T14:16:09.682Z,95.78
2023-05-09T14:18:37.483Z,95.34
2023-05-09T14:21:05.764Z,89.82
2023-05-09T14:23:33.461Z,90.50
2023-05-09T14:26:01.134Z,92.33
2023-05-09T14:28:28.858Z,94.39
2023-05-09T14:30:57.382Z,93.29
2023-05-09T14:33:27.147Z,90.36
2023-05-09T14:35:54.894Z,91.22
2023-05-09T14:38:22.566Z,91.48
2023-05-09T14:40:52.162Z,86.18
2023-05-09T14:43:19.889Z,83.73
2023-05-09T14:45:47.810Z,87.44
2023-05-09T14:48:16.278Z,91.53
2023-05-09T14:50:45.363Z,91.72
2023-05-09T14:53:13.774Z,87.09
2023-05-09T14:55:41.493Z,84.36
2023-05-09T14:58:10.307Z,80.38
2023-05-09T15:00:38.061Z,84.26
2023-05-09T15:03:05.764Z,89.37
2023-05-09T15:05:42.931Z,85.10
2023-05-09T15:08:11.976Z,86.69
2023-05-09T15:10:39.781Z,90.94
2023-05-09T15:13:07.561Z,91.97
2023-05-09T15:15:35.409Z,89.49
2023-05-09T15:18:03.369Z,86.53
2023-05-09T15:20:31.024Z,87.92
2023-05-09T15:22:58.713Z,90.20
2023-05-09T15:25:27.799Z,88.74
2023-05-09T15:27:56.002Z,89.34
2023-05-09T15:30:23.670Z,87.26
2023-05-09T15:32:51.373Z,86.22
2023-05-09T15:35:19.337Z,85.88
2023-05-09T15:37:47.238Z,85.44
2023-05-09T15:42:58.452Z,88.09
2023-05-09T15:45:26.175Z,92.76
2023-05-09T15:47:54.019Z,90.49
2023-05-09T15:50:22.259Z,92.93
2023-05-09T15:52:52.238Z,97.81
2023-05-09T15:55:20.139Z,96.55
2023-05-09T15:57:48.413Z,98.12
2023-05-09T16:00:18.351Z,98.65
2023-05-09T16:02:46.148Z,100.00
2023-05-09T16:05:13.831Z,100.00
2023-05-09T16:07:44.877Z,100.00
2023-05-09T16:10:12.748Z,100.00
2023-05-09T16:12:41.349Z,100.00
2023-05-09T16:15:09.823Z,100.00
2023-05-09T16:17:39.151Z,100.00
2023-05-09T16:20:08.028Z,98.21
2023-05-09T16:22:35.793Z,92.76
2023-05-09T16:25:03.565Z,98.05
2023-05-09T16:27:31.206Z,95.50
2023-05-09T16:29:59.079Z,94.69
2023-05-09T16:32:26.750Z,94.91
2023-05-09T16:34:56.009Z,93.52
2023-05-09T16:37:23.920Z,98.70
2023-05-09T16:39:51.554Z,96.24
2023-05-09T16:42:19.193Z,94.95
2023-05-09T16:44:47.121Z,98.38
2023-05-09T16:47:14.803Z,90.28
2023-05-09T16:49:42.772Z,93.81
2023-05-09T16:52:12.349Z,94.48
2023-05-09T16:54:39.982Z,93.29
2023-05-09T16:57:07.649Z,97.71
2023-05-09T16:59:35.395Z,99.56
2023-05-09T17:02:04.421Z,94.49
2023-05-09T17:04:32.446Z,92.40
2023-05-09T17:07:00.135Z,100.00
2023-05-09T17:09:29.194Z,100.00
2023-05-09T17:11:56.835Z,100.00
2023-05-09T17:14:24.534Z,100.00
2023-05-09T17:17:09.043Z,100.00
2023-05-09T17:19:36.962Z,100.00
2023-05-09T17:22:05.861Z,100.00
2023-05-09T17:24:35.210Z,100.00
2023-05-09T17:27:02.913Z,100.00
2023-05-09T17:29:31.096Z,100.00
2023-05-09T17:32:00.718Z,100.00
2023-05-09T17:34:28.949Z,100.00
2023-05-09T17:36:56.913Z,95.92
2023-05-09T17:39:25.072Z,95.24
2023-05-09T17:41:54.369Z,100.00
2023-05-09T17:44:22.181Z,100.00
2023-05-09T17:46:50.397Z,100.00
2023-05-09T17:49:18.441Z,100.00
2023-05-09T17:51:46.258Z,100.00
2023-05-09T17:54:14.345Z,100.00
2023-05-09T17:56:42.185Z,100.00
2023-05-09T17:59:11.259Z,100.00
2023-05-09T18:01:39.030Z,100.00
2023-05-09T18:04:06.792Z,100.00
2023-05-09T18:06:34.451Z,100.00
2023-05-09T18:09:02.660Z,100.00
2023-05-09T18:11:30.632Z,98.56
2023-05-09T18:13:58.302Z,94.78
2023-05-09T18:16:28.048Z,100.00
2023-05-09T18:18:55.868Z,99.24
2023-05-09T18:21:23.851Z,93.14
2023-05-09T18:23:51.516Z,92.15
2023-05-09T18:26:19.722Z,87.78
2023-05-09T18:28:47.496Z,88.76
2023-05-09T18:31:15.384Z,92.63
2023-05-09T18:33:45.193Z,90.26
2023-05-09T18:36:15.000Z,98.84
2023-05-09T18:38:43.759Z,90.00
2023-05-09T18:41:12.751Z,93.59
2023-05-09T18:43:45.958Z,95.38
2023-05-09T18:46:17.356Z,90.90
2023-05-09T18:48:47.524Z,91.45
2023-05-09T18:51:15.189Z,94.04
2023-05-09T18:53:43.164Z,89.16
2023-05-09T18:56:10.829Z,96.41
2023-05-09T18:58:38.560Z,92.25
2023-05-09T19:01:11.119Z,88.98
2023-05-09T19:03:43.520Z,95.32
2023-05-09T19:06:13.799Z,93.32
2023-05-09T19:08:42.038Z,87.80
2023-05-09T19:11:11.577Z,90.26
2023-05-09T19:13:40.838Z,90.84
2023-05-09T19:16:09.258Z,87.78
2023-05-09T19:18:37.228Z,90.14
2023-05-09T19:21:05.032Z,91.23
2023-05-09T19:23:34.076Z,88.57
2023-05-09T19:26:01.725Z,87.80
2023-05-09T19:28:29.338Z,85.29
2023-05-09T19:30:57.598Z,92.20
2023-05-09T19:33:26.143Z,97.71
2023-05-09T19:35:53.972Z,98.36
2023-05-09T19:38:21.628Z,95.21
2023-05-09T19:40:50.902Z,91.92
2023-05-09T19:43:18.547Z,92.24
2023-05-09T19:45:46.294Z,90.21
2023-05-09T19:48:15.894Z,85.78
2023-05-09T19:50:43.997Z,85.78
2023-05-09T19:53:11.853Z,87.47
2023-05-09T19:55:39.728Z,86.72
2023-05-09T19:58:09.062Z,84.36
2023-05-09T20:00:38.850Z,88.88
2023-05-09T20:03:06.571Z,86.02
2023-05-09T20:05:34.780Z,85.11
2023-05-09T20:08:02.446Z,90.98
2023-05-09T20:10:30.840Z,89.74
2023-05-09T20:12:59.460Z,92.42
2023-05-09T20:15:28.586Z,87.58
2023-05-09T20:17:56.285Z,86.16
2023-05-09T20:20:23.986Z,83.98
2023-05-09T20:22:51.993Z,88.69
2023-05-09T20:25:19.707Z,89.10
2023-05-09T20:27:47.623Z,85.08
2023-05-09T20:30:16.054Z,82.56
2023-05-09T20:32:45.914Z,89.22
2023-05-09T20:35:13.627Z,91.68
2023-05-09T20:37:41.605Z,90.75
2023-05-09T20:40:10.120Z,92.59
2023-05-09T20:42:38.131Z,85.83
2023-05-09T20:45:06.700Z,89.48
2023-05-09T20:47:34.395Z,87.47
2023-05-09T20:50:03.726Z,88.61
2023-05-09T20:52:31.426Z,88.63
2023-05-09T20:54:59.334Z,85.80
2023-05-09T20:57:27.075Z,89.77
2023-05-09T20:59:54.932Z,97.25
2023-05-09T21:02:22.828Z,93.38
2023-05-09T21:04:50.541Z,94.20
2023-05-09T21:07:20.287Z,89.26
2023-05-09T21:09:48.125Z,100.00
2023-05-09T21:12:16.180Z,98.91
2023-05-09T21:14:44.652Z,91.25
2023-05-09T21:17:12.870Z,87.67
2023-05-09T21:19:40.537Z,90.78
2023-05-09T21:22:08.730Z,100.00
2023-05-09T21:24:37.997Z,100.00
2023-05-09T21:27:06.202Z,100.00
2023-05-09T21:29:34.200Z,100.00
2023-05-09T21:32:01.909Z,100.00
2023-05-09T21:34:29.554Z,98.39
2023-05-09T21:36:57.202Z,94.48
2023-05-09T21:39:24.838Z,100.00
2023-05-09T21:41:54.002Z,100.00
2023-05-09T21:44:21.659Z,100.00
2023-05-09T21:46:49.648Z,100.00
2023-05-09T21:49:18.158Z,100.00
2023-05-09T21:51:45.835Z,100.00
2023-05-09T21:54:13.800Z,100.00
2023-05-09T21:56:42.603Z,100.00
2023-05-09T21:59:11.818Z,100.00
2023-05-09T22:01:39.700Z,100.00
2023-05-09T22:04:08.487Z,97.90
2023-05-09T22:06:36.378Z,100.00
2023-05-09T22:09:04.782Z,100.00
2023-05-09T22:11:32.524Z,100.00
2023-05-09T22:14:00.231Z,100.00
2023-05-09T22:16:30.453Z,93.68
2023-05-09T22:18:58.471Z,98.87
2023-05-09T22:21:26.232Z,98.90
2023-05-09T22:23:54.132Z,96.76
2023-05-09T22:26:22.230Z,94.70
2023-05-09T22:28:49.984Z,99.90
2023-05-09T22:31:17.638Z,99.47
2023-05-09T22:33:46.734Z,98.25
2023-05-09T22:36:15.236Z,97.01
2023-05-09T22:38:43.975Z,94.91
2023-05-09T22:41:11.737Z,100.00
2023-05-09T22:43:39.901Z,100.00
2023-05-09T22:46:08.308Z,100.00
2023-05-09T22:48:35.992Z,100.00
2023-05-09T22:51:05.316Z,98.25
2023-05-09T22:53:33.804Z,99.53
2023-05-09T22:56:01.758Z,100.00
2023-05-09T22:58:29.461Z,96.13
2023-05-09T23:00:57.360Z,100.00
2023-05-09T23:03:25.234Z,100.00
2023-05-09T23:05:53.025Z,100.00
2023-05-09T23:08:22.318Z,99.59
2023-05-09T23:10:49.971Z,100.00
2023-05-09T23:13:17.756Z,100.00
2023-05-09T23:15:45.572Z,100.00
2023-05-09T23:18:13.367Z,100.00
2023-05-09T23:20:41.547Z,98.39
2023-05-09T23:23:09.447Z,100.00
2023-05-09T23:25:39.040Z,100.00
2023-05-09T23:28:06.701Z,100.00
2023-05-09T23:30:34.376Z,100.00
2023-05-09T23:33:02.072Z,100.00
2023-05-09T23:35:29.729Z,100.00
2023-05-09T23:37:57.652Z,100.00
2023-05-09T23:40:25.370Z,100.00
2023-05-09T23:42:54.374Z,100.00
2023-05-09T23:45:22.174Z,100.00
2023-05-09T23:47:49.955Z,100.00
2023-05-09T23:50:18.166Z,100.00
2023-05-09T23:52:49.216Z,99.98
2023-05-09T23:55:17.362Z,100.00
2023-05-09T23:57:45.025Z,100.00
